CheckWX is a tool to help pilots better visualize weather data.  It is not intended as a substitute for an official pre-flight weather briefing.

06:56:44 UTC

KSPS TAF
Sheppard AFB / Wichita Falls Municipal Airport
Wichita Falls, Texas, USA
KSPS 070520Z 0706/0806 03005KT P6SM BKN250 FM071700 17010KT P6SM BKN250

Dec-7@
06:00 UTC

Dec-7 @ 06:00 UTC

Dec-7@
17:00 UTC

Dec-7 @ 17:00 UTC

KSPS 070520Z 0706/0806 03005KT P6SM BKN250
Wind
  • 030° at 5 KTS
Cloud Levels
  • Broken at 25,000' AGL

Dec-7@
17:00 UTC

Dec-7 @ 17:00 UTC

Dec-8@
06:00 UTC

Dec-8 @ 06:00 UTC

FM071700 17010KT P6SM BKN250

From

From Standard forecast or significant change

Wind
  • 170° at 10 KTS
Cloud Levels
  • Broken at 25,000' AGL